Time;durP1;ratioP1;P1;durP2;ratioP2;P2;SDS_P1;SDS_P2;PMS_P1;PMS_P2;Temp;Humidity;BMP_temperature;BMP_pressure;BME280_temperature;BME280_humidity;BME280_pressure;Samples;Min_cycle;Max_cycle;Signal;HPM_P1;HPM_P2
2021/06/10 00:02:04;;;;;;;8.63;7.00;;;;;;;;;;4971746;28;20115;-59
2021/06/10 00:04:31;;;;;;;8.00;7.22;;;;;;;;;;4986502;28;20113;-61
2021/06/10 00:06:56;;;;;;;7.25;6.60;;;;;;;;;;4990683;28;20100;-60
2021/06/10 00:09:22;;;;;;;6.78;6.10;;;;;;;;;;4991747;28;20022;-60
2021/06/10 00:11:47;;;;;;;7.57;6.88;;;;;;;;;;4991319;28;20490;-60
2021/06/10 00:14:14;;;;;;;8.02;7.22;;;;;;;;;;4990858;28;20460;-60
2021/06/10 00:16:39;;;;;;;8.27;7.05;;;;;;;;;;4976003;28;20522;-59
2021/06/10 00:19:05;;;;;;;7.38;6.68;;;;;;;;;;4971169;28;20122;-59
2021/06/10 00:21:30;;;;;;;7.70;6.90;;;;;;;;;;4972063;28;20054;-59
2021/06/10 00:23:55;;;;;;;8.00;7.20;;;;;;;;;;4985931;28;20029;-60
2021/06/10 00:26:21;;;;;;;7.70;7.00;;;;;;;;;;4989649;28;20110;-60
2021/06/10 00:28:46;;;;;;;7.93;7.13;;;;;;;;;;4991235;28;20069;-60
2021/06/10 00:31:12;;;;;;;7.68;6.88;;;;;;;;;;4981783;28;20067;-60
2021/06/10 00:33:37;;;;;;;7.22;6.53;;;;;;;;;;4980619;28;20018;-58
2021/06/10 00:36:02;;;;;;;8.20;6.57;;;;;;;;;;4989919;28;20030;-61
2021/06/10 00:38:28;;;;;;;8.55;6.78;;;;;;;;;;4970538;28;20483;-60
2021/06/10 00:40:53;;;;;;;7.28;6.57;;;;;;;;;;4989888;28;20050;-59
2021/06/10 00:43:18;;;;;;;7.82;7.13;;;;;;;;;;4989646;28;20458;-59
2021/06/10 00:45:44;;;;;;;8.82;7.00;;;;;;;;;;4984126;28;20026;-60
2021/06/10 00:48:09;;;;;;;7.53;6.82;;;;;;;;;;4959890;28;20030;-60
2021/06/10 00:50:40;;;;;;;7.63;6.93;;;;;;;;;;4989422;28;20028;-60
2021/06/10 00:53:06;;;;;;;8.00;6.70;;;;;;;;;;4988704;28;20105;-60
2021/06/10 00:55:31;;;;;;;8.10;6.97;;;;;;;;;;4971851;28;20058;-59
2021/06/10 00:57:56;;;;;;;7.03;6.22;;;;;;;;;;4988613;28;20443;-59
2021/06/10 01:00:22;;;;;;;7.18;6.45;;;;;;;;;;4985328;28;20030;-58
2021/06/10 01:02:47;;;;;;;7.93;7.13;;;;;;;;;;4970582;28;20102;-60
2021/06/10 01:05:13;;;;;;;7.30;6.60;;;;;;;;;;4989086;28;20109;-60
2021/06/10 01:08:00;;;;;;;7.43;6.75;;;;;;;;;;4987301;28;20072;-61
2021/06/10 01:10:35;;;;;;;7.32;6.40;;;;;;;;;;5035778;23;20168;-62
2021/06/10 01:13:04;;;;;;;8.27;7.03;;;;;;;;;;5010041;28;20056;-62
2021/06/10 01:15:32;;;;;;;7.35;6.28;;;;;;;;;;5010612;28;20025;-61
2021/06/10 01:17:57;;;;;;;6.78;6.18;;;;;;;;;;4992503;28;20052;-62
2021/06/10 01:20:26;;;;;;;7.10;6.40;;;;;;;;;;4992855;28;20061;-62
2021/06/10 01:23:00;;;;;;;7.57;6.82;;;;;;;;;;5009922;28;20022;-62
2021/06/10 01:25:35;;;;;;;7.47;6.43;;;;;;;;;;5027049;28;20028;-61
2021/06/10 01:28:02;;;;;;;7.18;6.47;;;;;;;;;;5026286;28;20482;-62
2021/06/10 01:30:29;;;;;;;6.97;6.28;;;;;;;;;;5009863;28;20026;-62
2021/06/10 01:32:58;;;;;;;7.65;6.85;;;;;;;;;;5026515;28;20068;-62
2021/06/10 01:35:24;;;;;;;7.65;6.95;;;;;;;;;;4994047;28;20095;-62
2021/06/10 01:37:51;;;;;;;7.15;6.45;;;;;;;;;;5008340;28;20100;-62
2021/06/10 01:40:16;;;;;;;6.72;6.05;;;;;;;;;;5027189;28;20486;-62
2021/06/10 01:42:42;;;;;;;7.63;6.53;;;;;;;;;;4992680;28;20072;-62
2021/06/10 01:45:08;;;;;;;7.10;6.43;;;;;;;;;;4992821;28;20080;-62
2021/06/10 01:47:35;;;;;;;7.78;7.05;;;;;;;;;;5026287;28;20030;-62
2021/06/10 01:50:00;;;;;;;6.93;6.22;;;;;;;;;;5027149;28;20045;-62
2021/06/10 01:52:25;;;;;;;10.38;6.78;;;;;;;;;;4993006;28;20048;-62
2021/06/10 01:54:51;;;;;;;7.22;6.63;;;;;;;;;;4992692;28;20059;-62
2021/06/10 01:57:16;;;;;;;7.80;6.88;;;;;;;;;;4991802;28;20025;-62
2021/06/10 01:59:41;;;;;;;7.40;6.70;;;;;;;;;;4993198;28;20037;-62
2021/06/10 02:02:07;;;;;;;7.70;6.65;;;;;;;;;;5007514;28;20117;-62
2021/06/10 02:04:32;;;;;;;7.25;6.65;;;;;;;;;;4991771;28;20389;-62
2021/06/10 02:06:57;;;;;;;7.43;6.72;;;;;;;;;;4991862;28;20048;-62
2021/06/10 02:09:23;;;;;;;8.43;6.57;;;;;;;;;;4992670;28;20116;-62
2021/06/10 02:11:49;;;;;;;7.38;6.68;;;;;;;;;;5009313;28;20120;-62
2021/06/10 02:14:18;;;;;;;7.38;6.30;;;;;;;;;;5026371;28;20021;-62
2021/06/10 02:16:43;;;;;;;6.03;5.40;;;;;;;;;;4990147;28;20041;-62
2021/06/10 02:19:09;;;;;;;7.07;6.38;;;;;;;;;;4992622;28;20064;-61
2021/06/10 02:21:34;;;;;;;7.10;6.40;;;;;;;;;;4976399;28;20044;-62
2021/06/10 02:23:59;;;;;;;6.82;6.13;;;;;;;;;;4993333;28;20072;-62
2021/06/10 02:26:26;;;;;;;7.10;6.10;;;;;;;;;;5007680;28;20160;-61
2021/06/10 02:28:51;;;;;;;6.68;6.07;;;;;;;;;;5025995;28;20018;-62
2021/06/10 02:31:16;;;;;;;6.72;6.13;;;;;;;;;;5027020;28;20037;-62
2021/06/10 02:33:43;;;;;;;6.97;6.38;;;;;;;;;;5026784;28;20022;-62
2021/06/10 02:36:09;;;;;;;6.80;6.20;;;;;;;;;;4993207;28;20638;-62
2021/06/10 02:38:35;;;;;;;7.03;6.05;;;;;;;;;;5024782;28;20033;-62
2021/06/10 02:41:01;;;;;;;6.68;5.97;;;;;;;;;;5009806;28;20678;-62
2021/06/10 02:43:31;;;;;;;7.13;6.43;;;;;;;;;;5029149;28;20022;-62
2021/06/10 02:45:56;;;;;;;7.47;6.78;;;;;;;;;;5023539;28;20025;-62
2021/06/10 02:48:22;;;;;;;7.18;6.47;;;;;;;;;;4994330;28;20543;-62
2021/06/10 02:50:48;;;;;;;6.45;5.85;;;;;;;;;;5012623;28;20429;-62
2021/06/10 02:53:16;;;;;;;7.15;6.50;;;;;;;;;;5012316;28;20036;-62
2021/06/10 02:55:45;;;;;;;6.80;6.20;;;;;;;;;;5013039;28;20029;-62
2021/06/10 02:58:12;;;;;;;7.05;6.35;;;;;;;;;;5011127;28;20025;-62
2021/06/10 03:00:38;;;;;;;7.68;6.88;;;;;;;;;;4991575;28;20080;-62
2021/06/10 03:03:03;;;;;;;6.05;5.45;;;;;;;;;;4979110;28;20033;-63
2021/06/10 03:05:29;;;;;;;7.03;6.25;;;;;;;;;;5030457;28;20029;-61
2021/06/10 03:07:55;;;;;;;6.50;5.72;;;;;;;;;;4994796;28;20461;-61
2021/06/10 03:10:22;;;;;;;7.28;6.57;;;;;;;;;;4978473;28;20035;-59
2021/06/10 03:12:47;;;;;;;7.35;6.65;;;;;;;;;;4996186;28;20053;-63
2021/06/10 03:15:13;;;;;;;7.53;6.38;;;;;;;;;;4996184;28;20173;-61
2021/06/10 03:17:39;;;;;;;6.18;5.57;;;;;;;;;;5010958;28;20033;-58
2021/06/10 03:20:05;;;;;;;6.40;5.80;;;;;;;;;;5011916;28;20040;-59
2021/06/10 03:22:30;;;;;;;6.60;6.00;;;;;;;;;;5028638;28;20108;-60
2021/06/10 03:24:56;;;;;;;6.72;6.13;;;;;;;;;;4995903;28;20160;-62
2021/06/10 03:27:21;;;;;;;7.25;6.55;;;;;;;;;;4994576;28;20152;-62
2021/06/10 03:29:47;;;;;;;6.70;6.10;;;;;;;;;;4995936;28;20025;-62
2021/06/10 03:32:13;;;;;;;6.80;6.10;;;;;;;;;;5010962;28;20037;-62
2021/06/10 03:34:38;;;;;;;6.32;5.68;;;;;;;;;;5029599;28;20026;-62
2021/06/10 03:37:04;;;;;;;6.85;6.20;;;;;;;;;;5010715;28;20025;-62
2021/06/10 03:39:29;;;;;;;6.88;6.28;;;;;;;;;;5029091;28;20029;-62
2021/06/10 03:41:55;;;;;;;7.72;6.80;;;;;;;;;;5011676;28;20037;-62
2021/06/10 03:44:20;;;;;;;8.18;7.45;;;;;;;;;;5011071;28;20022;-62
2021/06/10 03:46:45;;;;;;;7.13;6.43;;;;;;;;;;5027783;28;20033;-62
2021/06/10 03:49:11;;;;;;;7.05;6.40;;;;;;;;;;5011698;28;20017;-61
2021/06/10 03:51:37;;;;;;;6.78;6.18;;;;;;;;;;5011253;28;20025;-62
2021/06/10 03:54:02;;;;;;;6.35;5.75;;;;;;;;;;5011189;28;20029;-61
2021/06/10 03:56:27;;;;;;;6.68;6.07;;;;;;;;;;4993370;28;20052;-61
2021/06/10 03:58:53;;;;;;;6.75;6.13;;;;;;;;;;5028542;28;20591;-60
2021/06/10 04:01:18;;;;;;;6.63;5.90;;;;;;;;;;5028811;28;20386;-61
2021/06/10 04:03:44;;;;;;;7.00;6.00;;;;;;;;;;5028779;28;20029;-59
2021/06/10 04:06:11;;;;;;;6.72;6.05;;;;;;;;;;5028218;28;20025;-61
2021/06/10 04:08:36;;;;;;;6.25;5.75;;;;;;;;;;5027478;28;20028;-62
2021/06/10 04:11:02;;;;;;;6.32;5.72;;;;;;;;;;5029229;28;20474;-62
2021/06/10 04:13:27;;;;;;;6.10;5.50;;;;;;;;;;5011174;28;20017;-61
2021/06/10 04:15:53;;;;;;;6.63;5.78;;;;;;;;;;5027513;28;20440;-62
2021/06/10 04:18:18;;;;;;;6.47;5.53;;;;;;;;;;5027481;28;20025;-61
2021/06/10 04:20:45;;;;;;;6.10;5.53;;;;;;;;;;5028586;28;20021;-62
2021/06/10 04:23:11;;;;;;;6.22;5.63;;;;;;;;;;5010860;28;20033;-61
2021/06/10 04:25:36;;;;;;;6.25;5.65;;;;;;;;;;5010896;28;20028;-62
2021/06/10 04:28:01;;;;;;;6.55;5.72;;;;;;;;;;5026525;28;20021;-62
2021/06/10 04:30:27;;;;;;;6.40;5.07;;;;;;;;;;5024748;28;20030;-61
2021/06/10 04:32:52;;;;;;;6.28;5.68;;;;;;;;;;5016602;28;20095;-62
2021/06/10 04:35:17;;;;;;;6.00;5.40;;;;;;;;;;5017245;28;20053;-62
2021/06/10 04:37:43;;;;;;;5.93;5.30;;;;;;;;;;5017335;28;20061;-62
2021/06/10 04:40:09;;;;;;;5.88;5.35;;;;;;;;;;5014965;28;20378;-62
2021/06/10 04:42:34;;;;;;;6.20;5.60;;;;;;;;;;5015272;28;20048;-62
2021/06/10 04:45:00;;;;;;;6.15;5.55;;;;;;;;;;5014937;28;20022;-61
2021/06/10 04:47:25;;;;;;;6.38;5.78;;;;;;;;;;5027884;28;20029;-62
2021/06/10 04:49:51;;;;;;;5.88;5.38;;;;;;;;;;5024315;28;20036;-59
2021/06/10 04:52:16;;;;;;;6.53;5.13;;;;;;;;;;4984351;28;20029;-59
2021/06/10 04:54:41;;;;;;;6.25;5.75;;;;;;;;;;5003119;28;20108;-59
2021/06/10 04:57:07;;;;;;;6.05;5.50;;;;;;;;;;5015438;28;20053;-59
2021/06/10 04:59:32;;;;;;;7.00;6.10;;;;;;;;;;5026655;28;20036;-60
2021/06/10 05:01:58;;;;;;;6.38;5.30;;;;;;;;;;5027470;28;20033;-58
2021/06/10 05:04:23;;;;;;;6.35;5.65;;;;;;;;;;5027556;28;20108;-61
2021/06/10 05:06:52;;;;;;;6.13;5.28;;;;;;;;;;5008825;28;20105;-60
2021/06/10 05:09:17;;;;;;;5.97;5.47;;;;;;;;;;5025663;28;20045;-61
2021/06/10 05:11:43;;;;;;;5.50;5.00;;;;;;;;;;5026076;28;20119;-61
2021/06/10 05:14:08;;;;;;;7.70;5.57;;;;;;;;;;5026646;28;20013;-61
2021/06/10 05:16:33;;;;;;;5.97;5.25;;;;;;;;;;5008887;28;20155;-62
2021/06/10 05:18:59;;;;;;;6.85;5.10;;;;;;;;;;4993330;28;20087;-61
2021/06/10 05:21:24;;;;;;;5.93;4.93;;;;;;;;;;5026772;28;21054;-61
2021/06/10 05:23:49;;;;;;;5.85;5.25;;;;;;;;;;5027523;28;20028;-62
2021/06/10 05:26:15;;;;;;;5.85;5.10;;;;;;;;;;5027834;28;20167;-62
2021/06/10 05:28:40;;;;;;;6.25;4.95;;;;;;;;;;5026092;28;20024;-61
2021/06/10 05:31:07;;;;;;;5.45;4.95;;;;;;;;;;5027545;28;20566;-61
2021/06/10 05:33:32;;;;;;;6.30;5.38;;;;;;;;;;5026443;28;20029;-61
2021/06/10 05:35:57;;;;;;;7.15;5.40;;;;;;;;;;5027314;28;20028;-61
2021/06/10 05:38:23;;;;;;;5.80;5.00;;;;;;;;;;5026371;28;20037;-61
2021/06/10 05:40:48;;;;;;;6.50;5.18;;;;;;;;;;5027370;28;20021;-61
2021/06/10 05:43:14;;;;;;;5.53;5.03;;;;;;;;;;5026567;28;20036;-62
2021/06/10 05:45:39;;;;;;;5.78;5.18;;;;;;;;;;5027114;28;20025;-60
2021/06/10 05:48:06;;;;;;;6.15;5.50;;;;;;;;;;5025618;28;20029;-62
2021/06/10 05:50:31;;;;;;;9.00;5.75;;;;;;;;;;5026674;28;20029;-63
2021/06/10 05:52:56;;;;;;;11.68;7.07;;;;;;;;;;5009084;28;20461;-63
2021/06/10 05:55:22;;;;;;;7.60;6.32;;;;;;;;;;5026780;28;20068;-63
2021/06/10 05:57:47;;;;;;;7.82;7.03;;;;;;;;;;5008287;28;20049;-63
2021/06/10 06:00:15;;;;;;;11.10;6.88;;;;;;;;;;5027510;28;20694;-63
2021/06/10 06:02:40;;;;;;;9.48;6.57;;;;;;;;;;5026151;28;20300;-63
2021/06/10 06:05:06;;;;;;;11.38;6.43;;;;;;;;;;5027219;28;20096;-64
2021/06/10 06:07:31;;;;;;;13.93;7.00;;;;;;;;;;5026213;28;20032;-63
2021/06/10 06:09:57;;;;;;;10.15;6.45;;;;;;;;;;5027045;28;20029;-63
2021/06/10 06:12:23;;;;;;;8.43;6.35;;;;;;;;;;5027168;28;20107;-63
2021/06/10 06:14:48;;;;;;;9.15;6.45;;;;;;;;;;5027193;28;20037;-62
2021/06/10 06:17:15;;;;;;;10.25;6.65;;;;;;;;;;5034969;28;20026;-63
2021/06/10 06:19:40;;;;;;;8.90;6.57;;;;;;;;;;5030633;28;20033;-63
2021/06/10 06:22:07;;;;;;;9.15;6.20;;;;;;;;;;5013419;28;20039;-63
2021/06/10 06:24:32;;;;;;;9.02;6.38;;;;;;;;;;5030921;28;20764;-63
2021/06/10 06:26:58;;;;;;;7.28;6.50;;;;;;;;;;5012172;28;20101;-61
2021/06/10 06:29:24;;;;;;;8.27;6.35;;;;;;;;;;5012776;28;20105;-61
2021/06/10 06:31:49;;;;;;;6.95;6.18;;;;;;;;;;5016080;28;20029;-61
2021/06/10 06:34:14;;;;;;;6.90;6.20;;;;;;;;;;4993714;28;20040;-62
2021/06/10 06:36:40;;;;;;;10.88;6.05;;;;;;;;;;4991955;28;20529;-63
2021/06/10 06:39:06;;;;;;;8.05;7.25;;;;;;;;;;5017956;28;20041;-61
2021/06/10 06:41:31;;;;;;;10.70;9.68;;;;;;;;;;5012926;28;20026;-59
2021/06/10 06:43:56;;;;;;;11.52;10.32;;;;;;;;;;5012489;28;20404;-61
2021/06/10 06:46:22;;;;;;;11.95;9.90;;;;;;;;;;5029163;28;20381;-59
2021/06/10 06:48:47;;;;;;;13.23;11.13;;;;;;;;;;5029399;28;20021;-58
2021/06/10 06:51:13;;;;;;;12.88;11.65;;;;;;;;;;5029441;28;20489;-59
2021/06/10 06:53:38;;;;;;;12.52;11.25;;;;;;;;;;5030072;28;20036;-60
2021/06/10 06:56:04;;;;;;;13.20;11.70;;;;;;;;;;5029943;28;20053;-61
2021/06/10 06:58:30;;;;;;;11.38;10.38;;;;;;;;;;5010812;28;20036;-61
2021/06/10 07:00:55;;;;;;;12.68;11.43;;;;;;;;;;5011856;28;20486;-60
2021/06/10 07:03:21;;;;;;;12.98;11.88;;;;;;;;;;5011736;28;20091;-60
2021/06/10 07:05:46;;;;;;;12.95;11.63;;;;;;;;;;5012431;28;20114;-58
2021/06/10 07:08:12;;;;;;;13.15;11.90;;;;;;;;;;5010611;28;20462;-60
2021/06/10 07:10:37;;;;;;;14.15;12.80;;;;;;;;;;5042151;22;20053;-54
2021/06/10 07:13:03;;;;;;;13.48;12.07;;;;;;;;;;5028928;28;20104;-52
2021/06/10 07:15:28;;;;;;;13.32;12.07;;;;;;;;;;5030072;28;20083;-54
2021/06/10 07:17:54;;;;;;;13.07;11.77;;;;;;;;;;5028266;28;20037;-60
2021/06/10 07:20:19;;;;;;;13.57;12.40;;;;;;;;;;5029320;28;20029;-51
2021/06/10 07:22:44;;;;;;;13.70;12.40;;;;;;;;;;5014832;28;20113;-54
2021/06/10 07:25:10;;;;;;;13.65;12.27;;;;;;;;;;5029637;28;20044;-56
2021/06/10 07:27:35;;;;;;;16.75;11.77;;;;;;;;;;5027980;28;20096;-53
2021/06/10 07:30:02;;;;;;;14.93;13.32;;;;;;;;;;5029363;28;20033;-55
2021/06/10 07:32:27;;;;;;;17.58;13.05;;;;;;;;;;5028627;28;20499;-54
2021/06/10 07:34:53;;;;;;;14.48;11.25;;;;;;;;;;5003524;28;20050;-60
2021/06/10 07:37:18;;;;;;;11.27;10.05;;;;;;;;;;5027286;28;20021;-59
2021/06/10 07:39:44;;;;;;;11.52;9.65;;;;;;;;;;5026487;28;20025;-59
2021/06/10 07:42:09;;;;;;;11.73;9.38;;;;;;;;;;5025031;28;20026;-59
2021/06/10 07:44:35;;;;;;;10.38;8.80;;;;;;;;;;5034513;28;20057;-57
2021/06/10 07:47:00;;;;;;;9.98;9.07;;;;;;;;;;5024735;28;20496;-58
2021/06/10 07:49:26;;;;;;;12.48;8.40;;;;;;;;;;5010437;28;20030;-60
2021/06/10 07:51:52;;;;;;;11.95;8.40;;;;;;;;;;4999966;28;20599;-59
2021/06/10 07:54:17;;;;;;;9.25;8.30;;;;;;;;;;5020694;28;20021;-60
2021/06/10 07:56:42;;;;;;;11.55;8.63;;;;;;;;;;5027078;28;20025;-59
2021/06/10 07:59:10;;;;;;;8.45;7.43;;;;;;;;;;5020054;28;20037;-58
2021/06/10 08:01:35;;;;;;;8.23;7.40;;;;;;;;;;4998630;28;20053;-60
2021/06/10 08:04:01;;;;;;;8.35;7.55;;;;;;;;;;5019976;28;20033;-59
2021/06/10 08:06:26;;;;;;;8.27;7.43;;;;;;;;;;5026537;28;20060;-58
2021/06/10 08:08:51;;;;;;;8.52;7.63;;;;;;;;;;5028473;28;20029;-58
2021/06/10 08:11:17;;;;;;;8.73;7.70;;;;;;;;;;5021138;28;20064;-58
2021/06/10 08:13:42;;;;;;;8.95;7.95;;;;;;;;;;5009072;28;20053;-60
2021/06/10 08:16:08;;;;;;;10.68;7.88;;;;;;;;;;5020580;28;20070;-60
2021/06/10 08:18:33;;;;;;;10.23;7.85;;;;;;;;;;5026451;28;20028;-59
2021/06/10 08:20:59;;;;;;;7.80;7.00;;;;;;;;;;5029144;28;20032;-58
2021/06/10 08:23:25;;;;;;;9.88;7.22;;;;;;;;;;5021996;28;20025;-56
2021/06/10 08:25:53;;;;;;;7.78;6.97;;;;;;;;;;5028896;28;20033;-57
2021/06/10 08:28:19;;;;;;;7.43;6.65;;;;;;;;;;5028049;28;20030;-58
2021/06/10 08:30:44;;;;;;;7.65;6.95;;;;;;;;;;5042712;28;20067;-62
2021/06/10 08:33:10;;;;;;;7.43;6.65;;;;;;;;;;5027908;28;20120;-61
2021/06/10 08:35:35;;;;;;;7.47;6.75;;;;;;;;;;5010151;28;20026;-62
2021/06/10 08:38:03;;;;;;;7.70;6.97;;;;;;;;;;5009946;28;20029;-61
2021/06/10 08:40:29;;;;;;;7.65;6.85;;;;;;;;;;4989835;28;20033;-61
2021/06/10 08:42:54;;;;;;;8.65;6.30;;;;;;;;;;5008209;28;20030;-58
2021/06/10 08:45:19;;;;;;;7.25;6.55;;;;;;;;;;5013662;28;20474;-59
2021/06/10 08:47:46;;;;;;;7.20;6.50;;;;;;;;;;5008611;28;20567;-60
2021/06/10 08:50:15;;;;;;;7.35;6.55;;;;;;;;;;5025242;28;20060;-59
2021/06/10 08:52:41;;;;;;;7.57;6.78;;;;;;;;;;5028001;28;20044;-59
2021/06/10 08:55:07;;;;;;;7.88;7.07;;;;;;;;;;5028299;28;20025;-61
2021/06/10 08:57:34;;;;;;;7.38;6.00;;;;;;;;;;5009231;28;20063;-59
2021/06/10 08:59:59;;;;;;;7.72;7.03;;;;;;;;;;5017633;28;20678;-59
2021/06/10 09:02:25;;;;;;;6.63;6.03;;;;;;;;;;5025848;28;20021;-59
2021/06/10 09:04:51;;;;;;;6.88;6.28;;;;;;;;;;5027947;28;20551;-59
2021/06/10 09:07:17;;;;;;;7.35;6.65;;;;;;;;;;5026548;28;20037;-59
2021/06/10 09:09:43;;;;;;;6.97;6.32;;;;;;;;;;5027254;28;20022;-58
2021/06/10 09:12:10;;;;;;;6.70;6.00;;;;;;;;;;5026562;28;20088;-57
2021/06/10 09:14:58;;;;;;;7.07;6.45;;;;;;;;;;5028221;28;20037;-57
2021/06/10 09:17:27;;;;;;;7.45;6.43;;;;;;;;;;5025385;28;20029;-56
2021/06/10 09:19:52;;;;;;;6.57;5.97;;;;;;;;;;5027273;28;20025;-59
2021/06/10 09:22:19;;;;;;;7.47;5.80;;;;;;;;;;5027065;28;20062;-59
2021/06/10 09:24:44;;;;;;;6.80;6.10;;;;;;;;;;4993498;28;20767;-59
2021/06/10 09:27:11;;;;;;;6.38;5.78;;;;;;;;;;5008806;28;20032;-60
2021/06/10 09:29:40;;;;;;;6.20;5.50;;;;;;;;;;5027549;28;20022;-58
2021/06/10 09:32:12;;;;;;;6.82;5.80;;;;;;;;;;5027128;28;20034;-56
2021/06/10 09:34:47;;;;;;;6.80;5.90;;;;;;;;;;5023190;28;20657;-58
2021/06/10 09:37:13;;;;;;;7.32;6.13;;;;;;;;;;5006819;28;20026;-59
2021/06/10 09:39:54;;;;;;;6.57;5.80;;;;;;;;;;5007299;28;20512;-59
2021/06/10 09:42:28;;;;;;;6.55;5.78;;;;;;;;;;5007735;28;20040;-56
2021/06/10 09:45:00;;;;;;;6.85;6.15;;;;;;;;;;5009336;28;20022;-59
2021/06/10 09:47:40;;;;;;;5.95;5.45;;;;;;;;;;4976566;28;20485;-56
2021/06/10 09:50:27;;;;;;;6.45;5.85;;;;;;;;;;5011222;28;20038;-59
2021/06/10 09:52:54;;;;;;;6.18;5.57;;;;;;;;;;5031250;28;20112;-58
2021/06/10 09:55:31;;;;;;;7.25;5.78;;;;;;;;;;5013893;28;20559;-58
2021/06/10 09:58:12;;;;;;;5.93;5.43;;;;;;;;;;5029582;28;20034;-59
2021/06/10 10:00:48;;;;;;;;;;;;;;;;;;5016435;28;20033;-58
2021/06/10 10:03:23;;;;;;;6.00;5.43;;;;;;;;;;5030945;28;19908;-58
2021/06/10 10:05:48;;;;;;;6.57;5.78;;;;;;;;;;5031054;28;20689;-60
2021/06/10 10:08:15;;;;;;;6.30;5.70;;;;;;;;;;5029111;28;20025;-57
2021/06/10 10:10:40;;;;;;;6.07;5.47;;;;;;;;;;5030598;28;20033;-60
2021/06/10 10:13:09;;;;;;;5.85;5.25;;;;;;;;;;5030653;28;20028;-59
2021/06/10 10:15:34;;;;;;;6.20;5.60;;;;;;;;;;5030782;28;20029;-57
2021/06/10 10:17:59;;;;;;;6.55;5.35;;;;;;;;;;5009684;28;20025;-59
2021/06/10 10:20:25;;;;;;;6.13;5.53;;;;;;;;;;5030047;28;20037;-60
2021/06/10 10:22:50;;;;;;;5.90;5.40;;;;;;;;;;5013030;28;20053;-57
2021/06/10 10:25:15;;;;;;;5.82;5.25;;;;;;;;;;4996140;28;20026;-61
2021/06/10 10:27:41;;;;;;;6.28;5.68;;;;;;;;;;5011338;28;20044;-60
2021/06/10 10:30:08;;;;;;;7.45;6.30;;;;;;;;;;5028189;28;20056;-56
2021/06/10 10:32:35;;;;;;;6.95;5.53;;;;;;;;;;4977012;28;20022;-58
2021/06/10 10:35:22;;;;;;;6.00;4.70;;;;;;;;;;5012470;28;20032;-59
2021/06/10 10:37:48;;;;;;;5.90;5.40;;;;;;;;;;5029156;28;20079;-60
2021/06/10 10:40:23;;;;;;;6.28;5.35;;;;;;;;;;5003201;28;20034;-60
2021/06/10 10:42:51;;;;;;;5.55;5.05;;;;;;;;;;5030577;28;20068;-59
2021/06/10 10:45:26;;;;;;;6.10;5.50;;;;;;;;;;5030789;28;20567;-58
2021/06/10 10:48:10;;;;;;;5.70;5.20;;;;;;;;;;5028495;28;20033;-59
2021/06/10 10:50:45;;;;;;;6.05;5.45;;;;;;;;;;5030108;28;20029;-61
2021/06/10 10:53:21;;;;;;;6.13;5.55;;;;;;;;;;5029601;28;20025;-59
2021/06/10 10:55:59;;;;;;;5.25;4.68;;;;;;;;;;5030219;28;20036;-59
2021/06/10 10:58:24;;;;;;;5.53;5.00;;;;;;;;;;5011722;28;20548;-60
2021/06/10 11:00:49;;;;;;;5.68;5.18;;;;;;;;;;5030110;28;20033;-60
2021/06/10 11:03:26;;;;;;;5.63;4.95;;;;;;;;;;5027308;28;20026;-57
2021/06/10 11:05:52;;;;;;;5.50;5.00;;;;;;;;;;5025044;28;20685;-60
2021/06/10 11:08:17;;;;;;;5.57;4.97;;;;;;;;;;4992109;28;20028;-56
2021/06/10 11:10:52;;;;;;;5.72;5.22;;;;;;;;;;5010329;28;20037;-58
2021/06/10 11:13:21;;;;;;;5.70;5.20;;;;;;;;;;5011611;28;20092;-60
2021/06/10 11:15:47;;;;;;;5.60;5.07;;;;;;;;;;5030141;28;20048;-59
2021/06/10 11:18:12;;;;;;;5.95;5.45;;;;;;;;;;5028579;28;20393;-58
2021/06/10 11:20:38;;;;;;;5.50;5.00;;;;;;;;;;5029573;28;20056;-59
2021/06/10 11:23:10;;;;;;;5.03;4.53;;;;;;;;;;5029458;28;20501;-60
2021/06/10 11:25:50;;;;;;;5.82;5.22;;;;;;;;;;5029238;28;20041;-57
2021/06/10 11:28:16;;;;;;;5.50;5.00;;;;;;;;;;5012886;28;20104;-58
2021/06/10 11:30:46;;;;;;;5.90;5.10;;;;;;;;;;5029924;28;20096;-58
2021/06/10 11:33:12;;;;;;;6.93;5.68;;;;;;;;;;5029409;28;20033;-61
2021/06/10 11:35:50;;;;;;;5.65;5.15;;;;;;;;;;5026389;28;20095;-60
2021/06/10 11:38:17;;;;;;;6.22;5.20;;;;;;;;;;5014150;28;20041;-59
2021/06/10 11:40:50;;;;;;;6.15;5.55;;;;;;;;;;5007905;28;20489;-59
2021/06/10 11:43:16;;;;;;;5.78;5.22;;;;;;;;;;5009246;28;20445;-60
2021/06/10 11:45:41;;;;;;;6.88;4.95;;;;;;;;;;5015115;28;20029;-62
2021/06/10 11:48:07;;;;;;;7.90;5.50;;;;;;;;;;5026817;28;20032;-59
2021/06/10 11:50:34;;;;;;;6.22;5.72;;;;;;;;;;5029353;28;20032;-58
2021/06/10 11:53:17;;;;;;;7.35;6.40;;;;;;;;;;5029249;28;20021;-58
2021/06/10 11:55:42;;;;;;;8.23;7.43;;;;;;;;;;5028848;28;20030;-57
2021/06/10 11:58:08;;;;;;;6.97;6.28;;;;;;;;;;5026636;28;20457;-58
2021/06/10 12:00:44;;;;;;;7.45;6.75;;;;;;;;;;5028578;28;20040;-58
2021/06/10 12:03:11;;;;;;;7.30;6.50;;;;;;;;;;5028101;28;20107;-59
2021/06/10 12:06:02;;;;;;;7.20;6.47;;;;;;;;;;5028773;28;20021;-58
2021/06/10 12:08:31;;;;;;;8.77;6.45;;;;;;;;;;5021532;28;20104;-59
2021/06/10 12:11:01;;;;;;;7.93;5.88;;;;;;;;;;5014123;28;20037;-58
2021/06/10 12:13:30;;;;;;;6.85;6.15;;;;;;;;;;5005516;28;20025;-58
2021/06/10 12:15:56;;;;;;;7.55;6.38;;;;;;;;;;5021597;28;20163;-59
2021/06/10 12:18:21;;;;;;;7.80;6.07;;;;;;;;;;5025859;28;20602;-59
2021/06/10 12:20:48;;;;;;;7.18;5.93;;;;;;;;;;5027132;28;20055;-59
2021/06/10 12:23:19;;;;;;;7.70;5.93;;;;;;;;;;5027142;28;20033;-59
2021/06/10 12:25:51;;;;;;;8.32;6.20;;;;;;;;;;5020928;28;20500;-60
2021/06/10 12:28:39;;;;;;;8.85;6.50;;;;;;;;;;5027550;28;20025;-59
2021/06/10 12:31:12;;;;;;;8.48;6.47;;;;;;;;;;5026602;28;20029;-59
2021/06/10 12:33:39;;;;;;;7.70;6.13;;;;;;;;;;5027511;28;20033;-60
2021/06/10 12:36:05;;;;;;;7.63;6.90;;;;;;;;;;5022299;28;20436;-58
2021/06/10 12:38:33;;;;;;;8.68;6.43;;;;;;;;;;5026830;28;20026;-59
2021/06/10 12:41:22;;;;;;;7.43;6.65;;;;;;;;;;4979437;28;20652;-59
2021/06/10 12:43:49;;;;;;;7.85;7.15;;;;;;;;;;5007060;28;20044;-59
2021/06/10 12:46:15;;;;;;;10.27;6.80;;;;;;;;;;5016669;28;20083;-60
2021/06/10 12:48:40;;;;;;;7.72;6.68;;;;;;;;;;5025884;28;20026;-60
2021/06/10 12:51:16;;;;;;;8.00;6.70;;;;;;;;;;5028090;28;20053;-58
2021/06/10 12:54:00;;;;;;;8.45;7.05;;;;;;;;;;5020286;28;20033;-60
2021/06/10 12:56:40;;;;;;;8.27;7.20;;;;;;;;;;5019800;28;20036;-60
2021/06/10 12:59:06;;;;;;;9.43;6.95;;;;;;;;;;5028336;28;20018;-58
2021/06/10 13:01:31;;;;;;;10.20;7.45;;;;;;;;;;5024305;28;20404;-61
2021/06/10 13:03:57;;;;;;;7.97;7.00;;;;;;;;;;5005911;28;20029;-61
2021/06/10 13:06:23;;;;;;;7.80;6.80;;;;;;;;;;5008254;28;20389;-59
2021/06/10 13:08:48;;;;;;;7.55;6.75;;;;;;;;;;5012197;28;20414;-60
2021/06/10 13:11:14;;;;;;;9.55;6.93;;;;;;;;;;4989599;28;20049;-60
2021/06/10 13:13:40;;;;;;;7.55;6.82;;;;;;;;;;5008421;28;20095;-57
2021/06/10 13:16:05;;;;;;;7.93;7.13;;;;;;;;;;5015169;28;20678;-61
2021/06/10 13:18:34;;;;;;;10.75;6.93;;;;;;;;;;5007566;28;20390;-60
2021/06/10 13:21:01;;;;;;;9.05;7.38;;;;;;;;;;5007345;28;20033;-60
2021/06/10 13:23:29;;;;;;;7.35;6.65;;;;;;;;;;5017677;28;20029;-60
2021/06/10 13:26:17;;;;;;;8.23;7.47;;;;;;;;;;5026896;28;20033;-61
2021/06/10 13:29:05;;;;;;;8.13;7.32;;;;;;;;;;5027712;28;20029;-58
2021/06/10 13:31:32;;;;;;;7.93;7.13;;;;;;;;;;5026662;28;20053;-59
2021/06/10 13:34:03;;;;;;;7.60;6.75;;;;;;;;;;5027518;28;20040;-60
2021/06/10 13:36:29;;;;;;;7.63;6.65;;;;;;;;;;5026336;28;20033;-60
2021/06/10 13:38:58;;;;;;;8.25;7.28;;;;;;;;;;5017940;28;20363;-61
2021/06/10 13:41:26;;;;;;;7.93;6.82;;;;;;;;;;5015852;28;20104;-59
2021/06/10 13:43:51;;;;;;;8.10;7.30;;;;;;;;;;5013309;28;20025;-59
2021/06/10 13:46:17;;;;;;;8.65;7.03;;;;;;;;;;4998170;28;20505;-61
2021/06/10 13:48:44;;;;;;;7.90;6.97;;;;;;;;;;5014285;28;20018;-60
2021/06/10 13:51:09;;;;;;;9.35;6.70;;;;;;;;;;4996269;28;20109;-61
2021/06/10 13:53:35;;;;;;;25.52;7.72;;;;;;;;;;5014537;28;20132;-62
2021/06/10 13:56:01;;;;;;;9.07;7.00;;;;;;;;;;5014363;28;20079;-63
2021/06/10 13:58:27;;;;;;;10.05;7.03;;;;;;;;;;5012749;28;20643;-62
2021/06/10 14:00:52;;;;;;;8.10;6.93;;;;;;;;;;4996578;28;20069;-61
2021/06/10 14:03:21;;;;;;;9.55;7.03;;;;;;;;;;5011693;28;20038;-60
2021/06/10 14:05:46;;;;;;;8.27;6.90;;;;;;;;;;5010042;28;20026;-61
2021/06/10 14:08:12;;;;;;;8.38;7.10;;;;;;;;;;5014283;28;20029;-61
2021/06/10 14:10:37;;;;;;;8.80;6.85;;;;;;;;;;5012646;28;20398;-59
2021/06/10 14:13:02;;;;;;;9.18;7.03;;;;;;;;;;5014161;28;20389;-58
2021/06/10 14:15:28;;;;;;;9.70;7.15;;;;;;;;;;5015152;28;20041;-57
2021/06/10 14:17:53;;;;;;;8.45;7.53;;;;;;;;;;5014750;28;20644;-58
2021/06/10 14:20:19;;;;;;;10.02;7.47;;;;;;;;;;5013610;28;20490;-59
2021/06/10 14:22:44;;;;;;;8.65;7.15;;;;;;;;;;5014268;28;20029;-62
2021/06/10 14:25:10;;;;;;;7.60;6.88;;;;;;;;;;5015825;28;20017;-62
2021/06/10 14:27:36;;;;;;;9.15;7.40;;;;;;;;;;5014203;28;20129;-61
2021/06/10 14:32:48;;;;;;;10.35;7.60;;;;;;;;;;5014362;28;20038;-62
2021/06/10 14:35:13;;;;;;;8.52;7.78;;;;;;;;;;5015623;28;20029;-59
2021/06/10 14:37:39;;;;;;;9.77;7.75;;;;;;;;;;5015475;28;20137;-60
2021/06/10 14:40:05;;;;;;;8.45;7.65;;;;;;;;;;5001480;28;20029;-60
2021/06/10 14:42:31;;;;;;;10.90;7.70;;;;;;;;;;5017205;28;20482;-64
2021/06/10 14:44:56;;;;;;;8.52;7.72;;;;;;;;;;5018549;28;20036;-64